Time;durP1;ratioP1;P1;durP2;ratioP2;P2;SDS_P1;SDS_P2;PMS_P1;PMS_P2;Temp;Humidity;BMP_temperature;BMP_pressure;BME280_temperature;BME280_humidity;BME280_pressure;Samples;Min_cycle;Max_cycle;Signal;HPM_P1;HPM_P2
2022/01/30 00:00:11;;;;;;;;;;;;;;;8.35;45.53;99893.63;4376575;32;19999;-77
2022/01/30 00:02:39;;;;;;;;;;;;;;;8.33;45.69;99890.16;4380393;32;19978;-77
2022/01/30 00:05:06;;;;;;;;;;;;;;;8.33;46.17;99885.00;4369609;32;19987;-77
2022/01/30 00:07:33;;;;;;;;;;;;;;;8.50;45.60;99888.03;4381958;32;20048;-77
2022/01/30 00:10:00;;;;;;;;;;;;;;;8.20;47.21;99890.66;4386731;32;20013;-77
2022/01/30 00:12:40;;;;;;;;;;;;;;;8.67;47.00;99891.00;4370973;32;20721;-78
2022/01/30 00:15:07;;;;;;;;;;;;;;;8.71;47.38;99877.38;4384954;32;19986;-78
2022/01/30 00:17:40;;;;;;;;;;;;;;;8.91;47.86;99876.97;4368326;32;20009;-77
2022/01/30 00:20:13;;;;;;;;;;;;;;;8.87;47.92;99865.69;4369193;32;20001;-77
2022/01/30 00:22:52;;;;;;;;;;;;;;;8.89;48.10;99865.72;4376482;32;20025;-78
2022/01/30 00:25:30;;;;;;;;;;;;;;;8.89;48.15;99860.56;4368978;32;20006;-77
2022/01/30 00:28:05;;;;;;;;;;;;;;;8.09;49.03;99843.09;4369295;32;20006;-78
2022/01/30 00:30:34;;;;;;;;;;;;;;;8.05;49.24;99846.44;4369357;32;20009;-78
2022/01/30 00:33:02;;;;;;;;;;;;;;;8.05;48.61;99834.41;4380921;32;19979;-78
2022/01/30 00:35:33;;;;;;;;;;;;;;;8.23;48.09;99815.06;4386600;32;20291;-78
2022/01/30 00:38:00;;;;;;;;;;;;;;;8.16;48.77;99821.78;4374258;32;20036;-78
2022/01/30 00:40:34;;;;;;;;;;;;;;;7.97;48.91;99806.69;4371096;32;20034;-77
2022/01/30 00:43:03;;;;;;;;;;;;;;;7.72;49.03;99795.72;4369302;32;20387;-77
2022/01/30 00:45:30;;;;;;;;;;;;;;;7.73;49.47;99796.63;4368957;32;19991;-77
2022/01/30 00:47:57;;;;;;;;;;;;;;;8.32;48.06;99800.69;4369400;32;19987;-78
2022/01/30 00:50:24;;;;;;;;;;;;;;;8.47;47.90;99799.38;4369203;32;20052;-78
2022/01/30 00:52:55;;;;;;;;;;;;;;;8.62;47.77;99804.91;4377081;32;19986;-78
2022/01/30 00:55:22;;;;;;;;;;;;;;;8.70;46.69;99798.19;4368809;32;19986;-78
2022/01/30 00:57:49;;;;;;;;;;;;;;;8.72;46.81;99791.38;4369596;32;20432;-78
2022/01/30 01:00:16;;;;;;;;;;;;;;;8.76;47.41;99777.69;4368869;32;20002;-78
2022/01/30 01:02:45;;;;;;;;;;;;;;;8.84;46.89;99770.13;4379471;32;20044;-76
2022/01/30 01:05:13;;;;;;;;;;;;;;;8.87;47.51;99784.78;4379958;32;20042;-76
2022/01/30 01:07:46;;;;;;;;;;;;;;;8.85;47.36;99790.78;4368511;32;20052;-76
2022/01/30 01:10:25;;;;;;;;;;;;;;;8.84;47.36;99791.66;4374631;32;19993;-76
2022/01/30 01:23:28;;;;;;;;;;;;;;;8.96;47.75;99743.69;4385656;32;19995;-77
2022/01/30 01:25:56;;;;;;;;;;;;;;;9.00;46.60;99745.53;4369010;32;19991;-77
2022/01/30 01:28:23;;;;;;;;;;;;;;;8.99;46.48;99754.06;4376862;32;20002;-77
2022/01/30 01:30:50;;;;;;;;;;;;;;;8.96;46.64;99752.31;4369067;32;20045;-77
2022/01/30 01:33:17;;;;;;;;;;;;;;;9.01;46.84;99736.94;4370207;32;19995;-76
2022/01/30 01:35:44;;;;;;;;;;;;;;;9.05;46.71;99728.38;4367636;32;20026;-77
2022/01/30 01:38:14;;;;;;;;;;;;;;;9.09;47.11;99725.03;4370467;32;20280;-76
2022/01/30 01:40:44;;;;;;;;;;;;;;;9.11;46.43;99717.31;4368608;32;19998;-76
2022/01/30 01:43:11;;;;;;;;;;;;;;;8.98;47.28;99716.22;4368008;32;19983;-77
2022/01/30 01:45:40;;;;;;;;;;;;;;;9.12;47.06;99709.59;4368211;32;19978;-76
2022/01/30 01:48:13;;;;;;;;;;;;;;;9.10;46.92;99700.97;4368634;32;20014;-76
2022/01/30 01:50:43;;;;;;;;;;;;;;;9.11;46.88;99692.38;4368496;32;19987;-76
2022/01/30 01:53:13;;;;;;;;;;;;;;;8.94;47.45;99688.59;4369104;32;20035;-76
2022/01/30 01:55:40;;;;;;;;;;;;;;;9.02;47.59;99687.03;4368376;32;19987;-76
2022/01/30 01:58:09;;;;;;;;;;;;;;;9.06;47.85;99679.38;4368345;32;20010;-77
2022/01/30 02:00:36;;;;;;;;;;;;;;;9.03;47.55;99679.31;4372620;32;20045;-78
2022/01/30 02:03:04;;;;;;;;;;;;;;;9.03;47.32;99686.16;4391951;32;19979;-77
2022/01/30 02:05:34;;;;;;;;;;;;;;;9.01;47.25;99680.13;4384646;32;19989;-77
2022/01/30 02:10:57;;;;;;;;;;;;;;;9.07;47.23;99669.91;4370811;32;20048;-76
2022/01/30 02:24:24;;;;;;;;;;;;;;;8.64;47.38;99647.53;4369222;32;20012;-76
2022/01/30 02:26:51;;;;;;;;;;;;;;;8.61;47.07;99638.00;4357154;32;20077;-77
2022/01/30 02:29:19;;;;;;;;;;;;;;;8.42;47.52;99630.72;4355448;32;20029;-77
2022/01/30 02:31:47;;;;;;;;;;;;;;;8.36;47.89;99632.31;4356849;32;20034;-77
2022/01/30 02:34:14;;;;;;;;;;;;;;;8.32;47.67;99620.19;4371292;32;20473;-77
2022/01/30 02:36:46;;;;;;;;;;;;;;;8.28;47.88;99610.66;4358165;32;20054;-76
2022/01/30 02:39:13;;;;;;;;;;;;;;;8.31;47.70;99605.56;4354759;32;20035;-76
2022/01/30 02:41:40;;;;;;;;;;;;;;;8.18;47.88;99606.13;4359693;32;20008;-77
2022/01/30 02:44:19;;;;;;;;;;;;;;;8.10;47.96;99592.19;4358871;32;20035;-76
2022/01/30 02:46:50;;;;;;;;;;;;;;;8.00;48.60;99575.66;4357170;32;20465;-77
2022/01/30 02:51:57;;;;;;;;;;;;;;;7.77;49.77;99575.16;4387676;32;19982;-76
2022/01/30 02:54:25;;;;;;;;;;;;;;;7.88;49.64;99573.69;4358508;32;19983;-76
2022/01/30 02:56:52;;;;;;;;;;;;;;;7.92;50.80;99567.78;4381144;32;19987;-76
2022/01/30 02:59:19;;;;;;;;;;;;;;;8.04;49.79;99571.44;4388486;32;19986;-76
2022/01/30 03:01:47;;;;;;;;;;;;;;;7.97;50.16;99579.88;4381752;32;20233;-77
2022/01/30 03:04:14;;;;;;;;;;;;;;;7.95;50.32;99566.09;4389083;32;19991;-76
2022/01/30 03:06:41;;;;;;;;;;;;;;;8.22;49.55;99556.38;4370310;32;20033;-76
2022/01/30 03:09:09;;;;;;;;;;;;;;;8.03;51.22;99554.25;4369140;32;19994;-76
2022/01/30 03:11:37;;;;;;;;;;;;;;;8.18;50.81;99543.41;4369761;32;19987;-76
2022/01/30 03:14:04;;;;;;;;;;;;;;;8.10;51.51;99543.22;4370428;32;20044;-76
2022/01/30 03:16:31;;;;;;;;;;;;;;;7.91;52.17;99550.56;4368741;32;19997;-76
2022/01/30 03:18:59;;;;;;;;;;;;;;;7.59;53.37;99548.94;4377900;32;20348;-76
2022/01/30 03:21:26;;;;;;;;;;;;;;;7.87;52.66;99533.28;4370253;32;19986;-76
2022/01/30 03:23:53;;;;;;;;;;;;;;;7.29;54.68;99531.94;4384652;32;20032;-76
2022/01/30 03:26:19;;;;;;;;;;;;;;;7.49;54.16;99534.13;4375519;32;20054;-76
2022/01/30 03:28:49;;;;;;;;;;;;;;;7.43;54.67;99525.44;4373569;32;20028;-76
2022/01/30 03:31:19;;;;;;;;;;;;;;;7.76;53.76;99524.47;4373969;32;20022;-76
2022/01/30 03:33:46;;;;;;;;;;;;;;;8.09;52.81;99523.44;4373243;32;20403;-76
2022/01/30 03:36:13;;;;;;;;;;;;;;;7.93;53.61;99511.94;4386637;32;20021;-76
2022/01/30 03:38:41;;;;;;;;;;;;;;;8.12;53.15;99510.63;4373980;32;19979;-76
2022/01/30 03:41:08;;;;;;;;;;;;;;;7.62;54.80;99518.13;4378254;32;19998;-76
2022/01/30 03:43:35;;;;;;;;;;;;;;;7.54;55.15;99517.09;4385048;32;20030;-76
2022/01/30 03:46:02;;;;;;;;;;;;;;;8.01;53.79;99504.34;4385149;32;19994;-76
2022/01/30 03:48:30;;;;;;;;;;;;;;;7.38;55.65;99497.84;4393102;32;20006;-76
2022/01/30 03:50:57;;;;;;;;;;;;;;;7.43;55.86;99491.97;4378153;32;20058;-76
2022/01/30 03:53:24;;;;;;;;;;;;;;;7.78;54.60;99512.47;4384961;32;19998;-76
2022/01/30 03:55:51;;;;;;;;;;;;;;;7.63;54.96;99518.16;4370493;32;19979;-76
2022/01/30 03:58:19;;;;;;;;;;;;;;;7.68;54.85;99520.84;4366826;32;20031;-76
2022/01/30 04:00:46;;;;;;;;;;;;;;;7.64;55.18;99501.00;4375231;32;20438;-76
2022/01/30 04:03:14;;;;;;;;;;;;;;;7.83;54.38;99494.53;4383221;32;20339;-76
2022/01/30 04:05:40;;;;;;;;;;;;;;;7.59;55.26;99495.72;4382686;32;20029;-75
2022/01/30 04:08:09;;;;;;;;;;;;;;;7.30;56.24;99497.63;4379510;32;19991;-76
2022/01/30 04:10:37;;;;;;;;;;;;;;;7.04;57.36;99493.59;4382924;32;20013;-77
2022/01/30 04:13:06;;;;;;;;;;;;;;;7.34;56.36;99499.47;4377394;32;20001;-76
2022/01/30 04:15:33;;;;;;;;;;;;;;;7.80;54.94;99485.03;4381824;32;19967;-76
2022/01/30 04:18:01;;;;;;;;;;;;;;;7.34;56.63;99481.44;4370446;32;20045;-76
2022/01/30 04:20:28;;;;;;;;;;;;;;;7.56;56.24;99474.19;4372701;32;20042;-75
2022/01/30 04:22:55;;;;;;;;;;;;;;;7.58;55.89;99478.53;4377387;32;20035;-76
2022/01/30 04:25:23;;;;;;;;;;;;;;;7.59;56.11;99487.12;4381349;32;19986;-76
2022/01/30 04:27:52;;;;;;;;;;;;;;;7.85;55.59;99478.28;4383036;32;20356;-77
2022/01/30 04:30:19;;;;;;;;;;;;;;;7.85;55.58;99487.72;4376785;32;19995;-76
2022/01/30 04:32:46;;;;;;;;;;;;;;;7.48;56.86;99479.19;4378558;32;20152;-76
2022/01/30 04:35:21;;;;;;;;;;;;;;;7.87;55.92;99481.75;4379008;32;19991;-76
2022/01/30 04:57:04;;;;;;;;;;;;;;;7.57;57.94;99488.81;4370134;32;20001;-76
2022/01/30 04:59:50;;;;;;;;;;;;;;;7.35;58.75;99480.59;4370393;32;19998;-76
2022/01/30 05:07:34;;;;;;;;;;;;;;;7.53;58.19;99479.28;4370002;32;19999;-76
2022/01/30 05:10:01;;;;;;;;;;;;;;;7.56;58.34;99484.50;4378297;32;19986;-76
2022/01/30 05:12:36;;;;;;;;;;;;;;;7.79;57.57;99482.44;4382988;32;19994;-76
2022/01/30 05:15:03;;;;;;;;;;;;;;;7.60;58.22;99491.47;4389318;32;20116;-76
2022/01/30 05:17:33;;;;;;;;;;;;;;;7.96;57.39;99490.53;4384892;32;20316;-76
2022/01/30 05:20:02;;;;;;;;;;;;;;;7.73;58.13;99484.88;4385234;32;20033;-76
2022/01/30 05:22:29;;;;;;;;;;;;;;;7.98;57.29;99483.69;4379996;32;19998;-76
2022/01/30 05:24:56;;;;;;;;;;;;;;;7.38;58.72;99478.09;4374256;32;20001;-76
2022/01/30 05:27:23;;;;;;;;;;;;;;;7.77;57.70;99484.09;4378172;32;19982;-76
2022/01/30 05:29:50;;;;;;;;;;;;;;;7.82;57.69;99478.22;4369891;32;20002;-75
2022/01/30 05:32:18;;;;;;;;;;;;;;;7.43;59.10;99463.66;4380980;32;20006;-75
2022/01/30 05:34:45;;;;;;;;;;;;;;;7.03;60.87;99471.25;4377661;32;19995;-75
2022/01/30 05:37:12;;;;;;;;;;;;;;;7.29;60.01;99459.00;4377963;32;19983;-76
2022/01/30 05:39:42;;;;;;;;;;;;;;;7.36;60.07;99466.03;4389811;32;20002;-76
2022/01/30 05:42:11;;;;;;;;;;;;;;;6.83;61.55;99471.66;4371437;32;20077;-76
2022/01/30 05:44:54;;;;;;;;;;;;;;;7.51;59.78;99475.81;4379154;32;21017;-76
2022/01/30 05:47:26;;;;;;;;;;;;;;;7.27;60.33;99466.69;4381373;32;19999;-76
2022/01/30 05:49:53;;;;;;;;;;;;;;;7.18;60.61;99466.50;4371616;32;20042;-76
2022/01/30 05:52:24;;;;;;;;;;;;;;;7.56;59.65;99463.88;4382274;32;19991;-76
2022/01/30 05:54:51;;;;;;;;;;;;;;;7.28;60.27;99460.72;4380335;32;19986;-75
2022/01/30 05:57:18;;;;;;;;;;;;;;;7.10;61.33;99478.28;4373086;32;20437;-76
2022/01/30 05:59:45;;;;;;;;;;;;;;;7.37;60.42;99468.66;4378572;32;19990;-76
2022/01/30 06:02:12;;;;;;;;;;;;;;;7.21;60.75;99481.97;4371711;32;19999;-76
2022/01/30 06:04:39;;;;;;;;;;;;;;;7.38;60.36;99478.09;4378134;32;20024;-75
2022/01/30 06:07:08;;;;;;;;;;;;;;;7.09;61.07;99476.56;4381813;32;20021;-75
2022/01/30 06:09:36;;;;;;;;;;;;;;;7.56;59.54;99474.19;4379505;32;20524;-76
2022/01/30 06:12:04;;;;;;;;;;;;;;;7.18;60.64;99466.50;4377760;32;20335;-75
2022/01/30 06:14:33;;;;;;;;;;;;;;;7.14;60.74;99460.37;4382883;32;20029;-78
2022/01/30 06:17:01;;;;;;;;;;;;;;;7.09;60.97;99455.97;4371376;32;20030;-78
2022/01/30 06:19:33;;;;;;;;;;;;;;;7.31;60.19;99453.06;4371381;32;19979;-78
2022/01/30 06:22:03;;;;;;;;;;;;;;;7.33;60.20;99476.25;4371666;32;20050;-79
2022/01/30 06:24:32;;;;;;;;;;;;;;;7.45;59.32;99485.13;4371335;32;19999;-79
2022/01/30 06:27:03;;;;;;;;;;;;;;;7.45;59.42;99482.56;4382375;32;19990;-80
2022/01/30 06:29:33;;;;;;;;;;;;;;;6.68;61.68;99479.84;4377532;32;19995;-77
2022/01/30 06:32:05;;;;;;;;;;;;;;;6.91;61.22;99477.84;4384942;32;20339;-79
2022/01/30 06:34:35;;;;;;;;;;;;;;;7.36;59.78;99477.19;4380947;32;20067;-78
2022/01/30 06:37:05;;;;;;;;;;;;;;;7.87;58.54;99480.88;4396257;32;19993;-78
2022/01/30 06:39:34;;;;;;;;;;;;;;;7.79;58.96;99478.16;4386043;32;20004;-78
2022/01/30 06:42:03;;;;;;;;;;;;;;;7.91;58.64;99483.56;4376970;32;19991;-78
2022/01/30 06:44:39;;;;;;;;;;;;;;;8.23;58.03;99501.41;4372902;32;19978;-79
2022/01/30 06:47:17;;;;;;;;;;;;;;;8.40;57.38;99496.59;4385299;32;20046;-79
2022/01/30 06:49:46;;;;;;;;;;;;;;;8.11;58.66;99496.00;4393230;32;19987;-78
2022/01/30 06:52:15;;;;;;;;;;;;;;;8.77;56.60;99505.87;4384388;32;20005;-78
2022/01/30 06:54:45;;;;;;;;;;;;;;;8.82;56.06;99499.09;4376731;32;20006;-76
2022/01/30 06:57:19;;;;;;;;;;;;;;;8.68;56.58;99515.16;4383810;32;20128;-77
2022/01/30 07:00:01;;;;;;;;;;;;;;;8.69;55.98;99501.44;4382518;32;20033;-78
2022/01/30 07:02:32;;;;;;;;;;;;;;;8.92;55.36;99484.63;4381140;32;20021;-77
2022/01/30 07:05:01;;;;;;;;;;;;;;;8.84;55.52;99497.41;4385260;32;19990;-78
2022/01/30 07:07:29;;;;;;;;;;;;;;;9.07;54.80;99484.88;4087872;32;10001161;-78
2022/01/30 07:09:56;;;;;;;;;;;;;;;9.32;53.38;99486.16;4385498;32;20014;-77
2022/01/30 07:12:23;;;;;;;;;;;;;;;9.35;53.17;99463.78;4385148;32;20008;-75
2022/01/30 07:14:50;;;;;;;;;;;;;;;9.43;51.58;99457.88;4385991;32;20317;-76
2022/01/30 07:17:17;;;;;;;;;;;;;;;9.63;50.53;99472.78;4375102;32;19994;-76
2022/01/30 07:19:43;;;;;;;;;;;;;;;9.48;51.04;99465.72;4384053;32;19986;-79
2022/01/30 07:22:10;;;;;;;;;;;;;;;10.13;49.34;99457.94;4385452;32;19986;-78
2022/01/30 07:24:37;;;;;;;;;;;;;;;10.49;48.23;99464.38;4376795;32;19987;-78
2022/01/30 07:27:04;;;;;;;;;;;;;;;10.86;47.04;99451.81;4372890;32;19991;-79
2022/01/30 07:32:17;;;;;;;;;;;;;;;10.96;46.43;99443.25;4368273;32;19986;-78
2022/01/30 07:34:45;;;;;;;;;;;;;;;11.23;45.22;99446.91;4380034;32;20036;-79
2022/01/30 07:37:11;;;;;;;;;;;;;;;11.52;44.20;99455.75;4378176;32;20029;-78
2022/01/30 07:39:38;;;;;;;;;;;;;;;11.08;44.93;99464.06;4371465;32;19988;-78
2022/01/30 07:42:05;;;;;;;;;;;;;;;10.59;45.77;99474.00;4375436;32;20299;-77
2022/01/30 07:44:32;;;;;;;;;;;;;;;11.37;44.02;99471.19;4369162;32;20347;-76
2022/01/30 07:46:59;;;;;;;;;;;;;;;11.37;43.54;99463.41;4369288;32;20004;-76
2022/01/30 07:49:26;;;;;;;;;;;;;;;11.28;42.52;99478.91;4377166;32;19979;-76
2022/01/30 07:51:53;;;;;;;;;;;;;;;11.24;42.67;99464.19;4381003;32;19994;-77
2022/01/30 07:54:20;;;;;;;;;;;;;;;11.41;41.81;99462.56;4382934;32;20088;-78
2022/01/30 07:56:47;;;;;;;;;;;;;;;11.40;41.44;99455.66;4377539;32;19990;-78
2022/01/30 07:59:14;;;;;;;;;;;;;;;11.60;40.25;99479.97;4375286;32;20669;-78
2022/01/30 08:01:41;;;;;;;;;;;;;;;11.78;39.58;99499.97;4375328;32;20010;-78
2022/01/30 08:04:08;;;;;;;;;;;;;;;11.33;40.01;99474.63;4369123;32;19998;-78
2022/01/30 08:06:35;;;;;;;;;;;;;;;11.72;39.17;99499.06;4368869;32;20001;-78
2022/01/30 08:09:02;;;;;;;;;;;;;;;11.48;39.82;99474.72;4373451;32;20002;-78
2022/01/30 08:11:29;;;;;;;;;;;;;;;11.52;40.30;99507.59;4379202;32;20024;-77
2022/01/30 08:13:56;;;;;;;;;;;;;;;11.56;41.35;99556.00;4384376;32;20005;-78
2022/01/30 08:16:26;;;;;;;;;;;;;;;11.16;44.66;99526.28;4378881;32;20043;-78
2022/01/30 08:18:54;;;;;;;;;;;;;;;11.57;43.38;99526.63;4369313;32;19988;-78
2022/01/30 08:21:20;;;;;;;;;;;;;;;12.19;41.64;99539.97;4369167;32;19978;-78
2022/01/30 08:23:48;;;;;;;;;;;;;;;11.59;43.25;99571.56;4369669;32;20055;-78
2022/01/30 08:26:15;;;;;;;;;;;;;;;11.36;45.73;99567.94;4363516;32;19994;-78
2022/01/30 08:28:41;;;;;;;;;;;;;;;11.38;45.32;99555.84;4378967;32;20038;-79
2022/01/30 08:32:46;;;;;;;;;;;;;;;12.26;44.12;99562.50;4478549;31;782324;-79
2022/01/30 08:35:13;;;;;;;;;;;;;;;12.26;44.12;99562.50;4505395;31;20122;-79
2022/01/30 08:37:40;;;;;;;;;;;;;;;11.31;46.00;99556.66;4490490;31;20002;-77
2022/01/30 08:40:11;;;;;;;;;;;;;;;11.74;45.67;99568.25;4504794;31;19988;-79
2022/01/30 08:42:38;;;;;;;;;;;;;;;11.87;44.97;99574.41;4504897;31;19977;-78
2022/01/30 08:45:06;;;;;;;;;;;;;;;11.79;44.71;99573.44;4480609;32;19988;-78
2022/01/30 08:47:38;;;;;;;;;;;;;;;11.77;44.33;99569.97;4475006;31;19998;-78
2022/01/30 08:50:05;;;;;;;;;;;;;;;11.97;43.47;99545.06;4488877;32;20017;-76
2022/01/30 08:52:32;;;;;;;;;;;;;;;11.97;43.74;99552.84;4476752;32;19985;-77
2022/01/30 08:54:59;;;;;;;;;;;;;;;12.27;41.55;99561.66;4486428;31;20066;-78
2022/01/30 08:57:26;;;;;;;;;;;;;;;12.29;41.32;99571.19;4462617;32;20285;-80
2022/01/30 08:59:54;;;;;;;;;;;;;;;11.78;41.29;99571.72;4440959;32;19987;-77
2022/01/30 09:02:22;;;;;;;;;;;;;;;11.90;41.05;99566.66;4441784;32;19993;-79
2022/01/30 09:04:49;;;;;;;;;;;;;;;11.99;40.96;99564.09;4427790;32;20322;-75
2022/01/30 09:07:17;;;;;;;;;;;;;;;12.32;39.94;99581.56;4440438;32;19985;-79
2022/01/30 09:09:44;;;;;;;;;;;;;;;12.28;40.08;99573.75;4412521;32;20040;-78
2022/01/30 09:12:11;;;;;;;;;;;;;;;12.37;39.64;99573.78;4425361;32;20028;-79
2022/01/30 09:14:40;;;;;;;;;;;;;;;12.28;39.76;99579.84;4440307;32;19993;-80
2022/01/30 09:17:12;;;;;;;;;;;;;;;12.43;38.88;99583.34;4442149;32;20045;-79
2022/01/30 09:19:46;;;;;;;;;;;;;;;12.35;39.26;99591.09;4442082;32;19973;-81
2022/01/30 09:22:14;;;;;;;;;;;;;;;12.63;37.97;99581.69;4422832;32;19989;-79
2022/01/30 09:24:42;;;;;;;;;;;;;;;12.79;37.35;99598.19;4417244;32;20388;-81
2022/01/30 09:27:08;;;;;;;;;;;;;;;13.11;35.83;99607.78;4426648;32;19982;-80
2022/01/30 09:29:36;;;;;;;;;;;;;;;12.79;37.11;99598.19;4422255;32;20018;-80
2022/01/30 09:32:04;;;;;;;;;;;;;;;12.47;37.08;99580.75;4450994;32;20026;-79
2022/01/30 09:34:31;;;;;;;;;;;;;;;12.64;36.60;99572.19;4457209;32;19996;-79
2022/01/30 09:36:58;;;;;;;;;;;;;;;12.93;38.01;99580.06;4457024;32;20045;-78
2022/01/30 09:39:25;;;;;;;;;;;;;;;13.03;36.26;99593.06;4456396;32;19981;-78
2022/01/30 09:41:52;;;;;;;;;;;;;;;12.81;35.33;99617.25;4443284;32;19981;-77
2022/01/30 09:44:20;;;;;;;;;;;;;;;11.89;35.64;99616.75;4446807;32;20003;-77
2022/01/30 09:46:47;;;;;;;;;;;;;;;11.69;36.16;99597.56;4428141;32;19985;-77
2022/01/30 09:49:15;;;;;;;;;;;;;;;11.59;37.16;99592.31;4419852;32;20045;-77
2022/01/30 09:51:45;;;;;;;;;;;;;;;11.59;37.57;99587.13;4405372;32;20481;-78
2022/01/30 09:54:12;;;;;;;;;;;;;;;11.30;39.05;99593.81;4430868;32;20048;-77
2022/01/30 09:56:39;;;;;;;;;;;;;;;10.92;39.76;99583.94;4445948;32;19989;-78
2022/01/30 09:59:07;;;;;;;;;;;;;;;10.90;41.42;99598.56;4447188;32;20463;-79
2022/01/30 10:01:34;;;;;;;;;;;;;;;11.38;39.89;99607.69;4433166;32;20022;-80
2022/01/30 10:04:03;;;;;;;;;;;;;;;11.79;38.61;99599.38;4415563;32;20287;-79
2022/01/30 10:06:35;;;;;;;;;;;;;;;11.66;39.56;99602.75;4417435;32;20702;-78
2022/01/30 10:09:28;;;;;;;;;;;;;;;11.15;40.77;99600.56;4446442;32;20034;-78
2022/01/30 10:12:12;;;;;;;;;;;;;;;11.34;40.13;99611.09;4423245;32;19985;-80
2022/01/30 10:15:18;;;;;;;;;;;;;;;10.98;40.70;99611.63;4433066;32;20004;-79
2022/01/30 10:17:48;;;;;;;;;;;;;;;10.80;40.37;99627.81;4385828;32;19994;-79
2022/01/30 10:20:35;;;;;;;;;;;;;;;10.52;41.65;99650.75;4387929;32;19982;-79
2022/01/30 10:23:08;;;;;;;;;;;;;;;9.93;44.15;99655.91;4434171;32;20030;-81
2022/01/30 10:25:53;;;;;;;;;;;;;;;9.64;44.09;99674.41;4445697;32;19981;-80
2022/01/30 10:28:21;;;;;;;;;;;;;;;9.22;45.59;99628.00;4433150;32;20003;-79
2022/01/30 10:30:58;;;;;;;;;;;;;;;9.10;46.29;99639.00;4446077;32;20000;-80
2022/01/30 10:33:37;;;;;;;;;;;;;;;8.90;44.71;99653.22;4412860;32;19981;-78
2022/01/30 10:36:08;;;;;;;;;;;;;;;9.07;43.87;99628.59;4416486;32;19997;-82
2022/01/30 10:38:40;;;;;;;;;;;;;;;8.85;44.40;99641.09;4390707;32;20041;-81
2022/01/30 10:41:19;;;;;;;;;;;;;;;9.20;43.09;99638.31;4401625;32;20011;-80
2022/01/30 10:43:49;;;;;;;;;;;;;;;9.40;42.50;99637.81;4419411;32;20339;-79
2022/01/30 10:46:20;;;;;;;;;;;;;;;9.37;43.03;99625.69;4397024;32;20466;-78
2022/01/30 10:48:51;;;;;;;;;;;;;;;9.70;41.81;99628.00;4407573;32;20004;-76
2022/01/30 10:51:18;;;;;;;;;;;;;;;9.74;40.92;99634.94;4415587;32;20026;-77
2022/01/30 10:53:49;;;;;;;;;;;;;;;9.91;40.34;99630.03;4401836;32;20036;-76
2022/01/30 10:56:20;;;;;;;;;;;;;;;9.70;40.70;99633.16;4414463;32;20324;-78
2022/01/30 10:59:07;;;;;;;;;;;;;;;9.64;40.23;99633.06;4415800;32;19989;-75
2022/01/30 11:01:33;;;;;;;;;;;;;;;9.87;40.27;99629.97;4408904;32;19978;-77
2022/01/30 11:04:01;;;;;;;;;;;;;;;10.49;39.53;99642.94;4414898;32;20544;-77
2022/01/30 11:06:28;;;;;;;;;;;;;;;10.48;39.66;99625.69;4415034;32;19977;-79
2022/01/30 11:09:12;;;;;;;;;;;;;;;11.21;37.48;99629.97;4251290;32;5087402;-80
2022/01/30 11:11:45;;;;;;;;;;;;;;;10.83;38.77;99617.47;4409073;32;20645;-79
2022/01/30 11:19:25;;;;;;;;;;;;;;;10.67;39.06;99606.94;4401707;32;19998;-79
2022/01/30 11:21:55;;;;;;;;;;;;;;;11.13;37.65;99622.97;4413900;32;20009;-78
2022/01/30 11:24:23;;;;;;;;;;;;;;;10.81;37.35;99598.47;4402007;32;19982;-79
2022/01/30 11:26:50;;;;;;;;;;;;;;;10.78;36.63;99594.12;4411568;32;20126;-79
2022/01/30 11:29:19;;;;;;;;;;;;;;;10.78;36.44;99593.25;4415615;32;20357;-79
2022/01/30 11:31:46;;;;;;;;;;;;;;;10.07;37.98;99597.50;4395464;32;19978;-79
2022/01/30 11:34:13;;;;;;;;;;;;;;;10.05;37.49;99609.56;4414633;32;20346;-79
2022/01/30 11:36:48;;;;;;;;;;;;;;;10.10;40.97;99620.81;4415672;32;20300;-79
2022/01/30 11:39:17;;;;;;;;;;;;;;;9.75;42.38;99613.41;4414808;32;20832;-82
2022/01/30 11:42:06;;;;;;;;;;;;;;;10.07;40.97;99602.69;4403116;32;19982;-79
2022/01/30 11:44:33;;;;;;;;;;;;;;;9.92;41.25;99620.53;4393713;32;20009;-79
2022/01/30 11:47:03;;;;;;;;;;;;;;;9.42;43.60;99612.87;4400401;32;20000;-78
2022/01/30 11:49:57;;;;;;;;;;;;;;;9.44;45.18;99582.75;4400893;32;20050;-79
2022/01/30 11:52:45;;;;;;;;;;;;;;;9.59;44.17;99590.75;4399580;32;19978;-80
2022/01/30 11:55:31;;;;;;;;;;;;;;;9.91;43.03;99559.34;4392562;32;20028;-79
2022/01/30 11:57:58;;;;;;;;;;;;;;;9.77;42.78;99562.62;4415597;32;19985;-80
2022/01/30 12:00:43;;;;;;;;;;;;;;;10.33;41.04;99560.81;4414966;32;19995;-80
2022/01/30 12:03:25;;;;;;;;;;;;;;;10.36;40.19;99542.72;4382859;32;19977;-79
2022/01/30 12:05:52;;;;;;;;;;;;;;;10.17;38.32;99537.28;4396676;32;20036;-80
2022/01/30 12:08:38;;;;;;;;;;;;;;;10.40;37.89;99535.03;4401306;32;19973;-78
2022/01/30 12:11:05;;;;;;;;;;;;;;;10.37;37.72;99541.88;4415002;32;20049;-79
2022/01/30 12:13:42;;;;;;;;;;;;;;;9.99;37.68;99555.16;4374421;32;20016;-77
2022/01/30 12:16:29;;;;;;;;;;;;;;;10.07;37.55;99548.38;4385143;32;20004;-79
2022/01/30 12:18:56;;;;;;;;;;;;;;;10.39;36.79;99537.59;4411441;32;19990;-78
2022/01/30 12:21:26;;;;;;;;;;;;;;;10.18;36.31;99556.28;4388028;32;20328;-79
2022/01/30 12:23:52;;;;;;;;;;;;;;;10.70;36.09;99513.78;4397827;32;20892;-78
2022/01/30 12:26:21;;;;;;;;;;;;;;;10.51;35.81;99532.56;4386565;32;20002;-79
2022/01/30 12:28:50;;;;;;;;;;;;;;;10.46;36.09;99545.47;4382379;32;20040;-78
2022/01/30 12:31:26;;;;;;;;;;;;;;;10.17;36.73;99557.97;4389573;32;19982;-78
2022/01/30 12:34:02;;;;;;;;;;;;;;;10.55;36.64;99539.50;4402798;32;19993;-78
2022/01/30 12:36:30;;;;;;;;;;;;;;;10.51;36.75;99573.09;4411477;32;20366;-78
2022/01/30 12:38:59;;;;;;;;;;;;;;;10.29;37.08;99582.31;4397668;32;20450;-79
2022/01/30 12:41:26;;;;;;;;;;;;;;;10.11;37.17;99562.19;4397095;32;20072;-80
2022/01/30 12:43:59;;;;;;;;;;;;;;;9.95;37.40;99532.69;4411133;32;19981;-81
2022/01/30 12:46:27;;;;;;;;;;;;;;;10.37;36.57;99544.47;4411522;32;19989;-80
2022/01/30 12:49:05;;;;;;;;;;;;;;;10.65;35.72;99549.09;4410969;32;19999;-80
2022/01/30 12:51:32;;;;;;;;;;;;;;;10.69;35.69;99537.94;4405496;32;19994;-80
2022/01/30 12:53:59;;;;;;;;;;;;;;;10.46;37.07;99537.69;4395995;32;19978;-79
2022/01/30 12:56:26;;;;;;;;;;;;;;;10.80;35.61;99551.00;4392051;32;19981;-82
2022/01/30 12:58:54;;;;;;;;;;;;;;;10.74;35.79;99566.47;4370984;32;19978;-79
2022/01/30 13:01:24;;;;;;;;;;;;;;;10.38;37.10;99561.75;4388178;32;21029;-79
2022/01/30 13:04:12;;;;;;;;;;;;;;;10.32;37.70;99553.91;4395629;32;20320;-79
2022/01/30 13:06:43;;;;;;;;;;;;;;;9.94;38.76;99554.22;4393211;32;20143;-78
2022/01/30 13:09:11;;;;;;;;;;;;;;;10.58;37.54;99539.53;4409334;32;20031;-80
2022/01/30 13:11:39;;;;;;;;;;;;;;;10.41;38.35;99525.56;4398691;32;20388;-79
2022/01/30 13:14:07;;;;;;;;;;;;;;;10.61;36.95;99508.50;4410321;32;19974;-79
2022/01/30 13:16:38;;;;;;;;;;;;;;;10.35;36.49;99497.03;4405621;32;19994;-81
2022/01/30 13:19:07;;;;;;;;;;;;;;;10.57;36.41;99496.41;4397882;32;19974;-80
2022/01/30 13:21:35;;;;;;;;;;;;;;;10.82;34.91;99507.88;4409201;32;20085;-80
2022/01/30 13:24:02;;;;;;;;;;;;;;;10.56;34.71;99510.22;4413191;32;19974;-82
2022/01/30 13:26:42;;;;;;;;;;;;;;;10.44;34.83;99510.06;4412748;32;20028;-79
2022/01/30 13:29:19;;;;;;;;;;;;;;;10.48;34.33;99520.44;4398797;32;19988;-80
2022/01/30 13:31:47;;;;;;;;;;;;;;;10.98;33.57;99510.63;4416477;32;19994;-79
2022/01/30 13:34:18;;;;;;;;;;;;;;;10.86;33.53;99534.66;4427484;32;19980;-79
2022/01/30 13:36:53;;;;;;;;;;;;;;;10.55;34.41;99534.31;4426406;32;19989;-81
2022/01/30 13:39:28;;;;;;;;;;;;;;;10.39;35.16;99542.78;4401803;32;20034;-83
2022/01/30 13:42:23;;;;;;;;;;;;;;;10.66;34.99;99568.97;4425312;32;20000;-83
2022/01/30 13:44:52;;;;;;;;;;;;;;;10.59;35.09;99572.34;4420503;32;20220;-82
2022/01/30 13:47:21;;;;;;;;;;;;;;;10.61;34.68;99575.81;4421290;32;20476;-83
2022/01/30 13:49:49;;;;;;;;;;;;;;;10.14;35.93;99635.53;4396193;32;19997;-81
2022/01/30 13:52:18;;;;;;;;;;;;;;;9.73;37.89;99607.38;4411854;32;19978;-81
2022/01/30 13:54:58;;;;;;;;;;;;;;;9.86;37.29;99602.34;4419558;32;19974;-82
2022/01/30 13:57:31;;;;;;;;;;;;;;;9.61;38.44;99612.34;4411036;32;20082;-82
2022/01/30 14:00:05;;;;;;;;;;;;;;;10.05;37.39;99609.56;4411864;32;19981;-85
2022/01/30 14:02:34;;;;;;;;;;;;;;;9.71;37.43;99614.22;4404607;32;19990;-84
2022/01/30 14:05:20;;;;;;;;;;;;;;;9.49;38.35;99632.78;4424749;32;19978;-84
2022/01/30 14:07:47;;;;;;;;;;;;;;;9.67;38.12;99586.59;4396897;32;19993;-85